sensor_id;sensor_type;location;lat;lon;timestamp;P1;durP1;ratioP1;P2;durP2;ratioP2
15635;SDS011;7917;50.818;6.972;2022-11-11T00:01:38;15.48;;;8.77;;
15635;SDS011;7917;50.818;6.972;2022-11-11T00:04:07;21.58;;;9.73;;
15635;SDS011;7917;50.818;6.972;2022-11-11T00:06:34;19.25;;;9.20;;
15635;SDS011;7917;50.818;6.972;2022-11-11T00:09:02;15.23;;;8.48;;
15635;SDS011;7917;50.818;6.972;2022-11-11T00:11:30;15.07;;;9.07;;
15635;SDS011;7917;50.818;6.972;2022-11-11T00:13:57;12.50;;;8.57;;
15635;SDS011;7917;50.818;6.972;2022-11-11T00:16:24;13.50;;;9.15;;
15635;SDS011;7917;50.818;6.972;2022-11-11T00:19:13;13.23;;;9.15;;
15635;SDS011;7917;50.818;6.972;2022-11-11T00:21:58;13.65;;;8.65;;
15635;SDS011;7917;50.818;6.972;2022-11-11T00:24:44;17.73;;;9.18;;
15635;SDS011;7917;50.818;6.972;2022-11-11T00:27:40;19.30;;;9.18;;
15635;SDS011;7917;50.818;6.972;2022-11-11T00:30:08;18.33;;;8.95;;
15635;SDS011;7917;50.818;6.972;2022-11-11T00:32:36;14.27;;;9.30;;
15635;SDS011;7917;50.818;6.972;2022-11-11T00:35:03;14.23;;;9.05;;
15635;SDS011;7917;50.818;6.972;2022-11-11T00:37:48;14.40;;;9.23;;
15635;SDS011;7917;50.818;6.972;2022-11-11T00:40:17;17.35;;;9.43;;
15635;SDS011;7917;50.818;6.972;2022-11-11T00:42:44;15.88;;;10.23;;
15635;SDS011;7917;50.818;6.972;2022-11-11T00:45:12;15.23;;;9.50;;
15635;SDS011;7917;50.818;6.972;2022-11-11T00:47:39;22.00;;;11.00;;
15635;SDS011;7917;50.818;6.972;2022-11-11T00:50:25;21.15;;;10.15;;
15635;SDS011;7917;50.818;6.972;2022-11-11T00:53:10;15.90;;;9.57;;
15635;SDS011;7917;50.818;6.972;2022-11-11T00:55:40;17.00;;;9.77;;
15635;SDS011;7917;50.818;6.972;2022-11-11T00:58:10;20.00;;;9.30;;
15635;SDS011;7917;50.818;6.972;2022-11-11T01:00:38;16.27;;;9.05;;
15635;SDS011;7917;50.818;6.972;2022-11-11T01:03:05;14.65;;;9.82;;
15635;SDS011;7917;50.818;6.972;2022-11-11T01:05:32;17.98;;;9.18;;
15635;SDS011;7917;50.818;6.972;2022-11-11T01:07:59;16.17;;;8.90;;
15635;SDS011;7917;50.818;6.972;2022-11-11T01:10:26;15.77;;;8.95;;
15635;SDS011;7917;50.818;6.972;2022-11-11T01:13:14;13.55;;;8.95;;
15635;SDS011;7917;50.818;6.972;2022-11-11T01:15:44;15.85;;;8.80;;
15635;SDS011;7917;50.818;6.972;2022-11-11T01:18:13;13.18;;;9.30;;
15635;SDS011;7917;50.818;6.972;2022-11-11T01:20:42;18.52;;;8.65;;
15635;SDS011;7917;50.818;6.972;2022-11-11T01:23:10;19.58;;;9.35;;
15635;SDS011;7917;50.818;6.972;2022-11-11T01:25:38;13.93;;;9.10;;
15635;SDS011;7917;50.818;6.972;2022-11-11T01:28:07;13.30;;;9.25;;
15635;SDS011;7917;50.818;6.972;2022-11-11T01:30:36;15.60;;;9.05;;
15635;SDS011;7917;50.818;6.972;2022-11-11T01:33:08;16.50;;;9.30;;
15635;SDS011;7917;50.818;6.972;2022-11-11T01:35:36;17.75;;;9.40;;
15635;SDS011;7917;50.818;6.972;2022-11-11T01:38:04;15.98;;;9.05;;
15635;SDS011;7917;50.818;6.972;2022-11-11T01:40:41;15.25;;;9.25;;
15635;SDS011;7917;50.818;6.972;2022-11-11T01:43:14;15.07;;;9.25;;
15635;SDS011;7917;50.818;6.972;2022-11-11T01:45:49;17.45;;;9.25;;
15635;SDS011;7917;50.818;6.972;2022-11-11T01:48:20;15.18;;;9.30;;
15635;SDS011;7917;50.818;6.972;2022-11-11T01:51:10;19.83;;;9.70;;
15635;SDS011;7917;50.818;6.972;2022-11-11T01:53:44;14.27;;;8.60;;
15635;SDS011;7917;50.818;6.972;2022-11-11T01:56:14;12.98;;;7.97;;
15635;SDS011;7917;50.818;6.972;2022-11-11T01:58:42;17.75;;;9.13;;
15635;SDS011;7917;50.818;6.972;2022-11-11T02:01:11;12.82;;;8.57;;
15635;SDS011;7917;50.818;6.972;2022-11-11T02:03:39;13.07;;;8.20;;
15635;SDS011;7917;50.818;6.972;2022-11-11T02:06:27;18.17;;;9.07;;
15635;SDS011;7917;50.818;6.972;2022-11-11T02:08:54;13.50;;;8.43;;
15635;SDS011;7917;50.818;6.972;2022-11-11T02:11:22;15.30;;;8.82;;
15635;SDS011;7917;50.818;6.972;2022-11-11T02:14:08;18.67;;;8.68;;
15635;SDS011;7917;50.818;6.972;2022-11-11T02:17:07;13.10;;;7.88;;
15635;SDS011;7917;50.818;6.972;2022-11-11T02:19:40;17.80;;;8.80;;
15635;SDS011;7917;50.818;6.972;2022-11-11T02:22:13;15.13;;;8.73;;
15635;SDS011;7917;50.818;6.972;2022-11-11T02:24:47;17.58;;;8.85;;
15635;SDS011;7917;50.818;6.972;2022-11-11T02:27:15;17.13;;;9.55;;
15635;SDS011;7917;50.818;6.972;2022-11-11T02:29:45;17.30;;;8.63;;
15635;SDS011;7917;50.818;6.972;2022-11-11T02:32:15;15.85;;;8.10;;
15635;SDS011;7917;50.818;6.972;2022-11-11T02:34:42;15.48;;;8.55;;
15635;SDS011;7917;50.818;6.972;2022-11-11T02:37:09;19.67;;;9.25;;
15635;SDS011;7917;50.818;6.972;2022-11-11T02:39:39;14.48;;;8.05;;
15635;SDS011;7917;50.818;6.972;2022-11-11T02:42:12;16.75;;;8.27;;
15635;SDS011;7917;50.818;6.972;2022-11-11T02:44:41;16.52;;;8.93;;
15635;SDS011;7917;50.818;6.972;2022-11-11T02:47:09;17.23;;;8.35;;
15635;SDS011;7917;50.818;6.972;2022-11-11T02:49:36;15.18;;;8.07;;
15635;SDS011;7917;50.818;6.972;2022-11-11T02:52:04;14.70;;;8.35;;
15635;SDS011;7917;50.818;6.972;2022-11-11T02:54:31;11.60;;;7.93;;
15635;SDS011;7917;50.818;6.972;2022-11-11T02:56:59;13.68;;;8.18;;
15635;SDS011;7917;50.818;6.972;2022-11-11T02:59:37;23.25;;;9.23;;
15635;SDS011;7917;50.818;6.972;2022-11-11T03:02:06;14.60;;;8.38;;
15635;SDS011;7917;50.818;6.972;2022-11-11T03:04:33;16.35;;;9.07;;
15635;SDS011;7917;50.818;6.972;2022-11-11T03:07:03;16.10;;;8.50;;
15635;SDS011;7917;50.818;6.972;2022-11-11T03:09:31;13.82;;;7.70;;
15635;SDS011;7917;50.818;6.972;2022-11-11T03:11:59;11.48;;;7.85;;
15635;SDS011;7917;50.818;6.972;2022-11-11T03:14:26;15.73;;;8.35;;
15635;SDS011;7917;50.818;6.972;2022-11-11T03:16:55;14.88;;;8.68;;
15635;SDS011;7917;50.818;6.972;2022-11-11T03:19:51;16.30;;;8.85;;
15635;SDS011;7917;50.818;6.972;2022-11-11T03:22:39;15.48;;;8.10;;
15635;SDS011;7917;50.818;6.972;2022-11-11T03:25:05;18.65;;;8.98;;
15635;SDS011;7917;50.818;6.972;2022-11-11T03:27:51;18.65;;;10.00;;
15635;SDS011;7917;50.818;6.972;2022-11-11T03:30:18;16.27;;;9.40;;
15635;SDS011;7917;50.818;6.972;2022-11-11T03:32:47;17.70;;;9.52;;
15635;SDS011;7917;50.818;6.972;2022-11-11T03:35:15;17.50;;;9.13;;
15635;SDS011;7917;50.818;6.972;2022-11-11T03:37:42;18.65;;;9.18;;
15635;SDS011;7917;50.818;6.972;2022-11-11T03:40:27;14.07;;;8.95;;
15635;SDS011;7917;50.818;6.972;2022-11-11T03:42:54;17.35;;;8.50;;
15635;SDS011;7917;50.818;6.972;2022-11-11T03:45:21;12.43;;;8.50;;
15635;SDS011;7917;50.818;6.972;2022-11-11T03:47:51;17.85;;;8.90;;
15635;SDS011;7917;50.818;6.972;2022-11-11T03:50:19;16.52;;;8.55;;
15635;SDS011;7917;50.818;6.972;2022-11-11T03:52:46;13.93;;;9.40;;
15635;SDS011;7917;50.818;6.972;2022-11-11T03:55:14;17.83;;;8.55;;
15635;SDS011;7917;50.818;6.972;2022-11-11T03:57:42;15.07;;;8.60;;
15635;SDS011;7917;50.818;6.972;2022-11-11T04:03:34;13.63;;;8.25;;
15635;SDS011;7917;50.818;6.972;2022-11-11T04:06:20;14.93;;;8.48;;
15635;SDS011;7917;50.818;6.972;2022-11-11T04:09:06;16.90;;;8.68;;
15635;SDS011;7917;50.818;6.972;2022-11-11T04:11:51;18.33;;;9.35;;
15635;SDS011;7917;50.818;6.972;2022-11-11T04:14:18;16.20;;;9.90;;
15635;SDS011;7917;50.818;6.972;2022-11-11T04:17:06;20.63;;;9.80;;
15635;SDS011;7917;50.818;6.972;2022-11-11T04:19:35;15.98;;;9.63;;
15635;SDS011;7917;50.818;6.972;2022-11-11T04:22:20;20.08;;;8.75;;
15635;SDS011;7917;50.818;6.972;2022-11-11T04:24:48;13.15;;;7.93;;
15635;SDS011;7917;50.818;6.972;2022-11-11T04:27:33;17.48;;;9.18;;
15635;SDS011;7917;50.818;6.972;2022-11-11T04:30:00;16.45;;;8.88;;
15635;SDS011;7917;50.818;6.972;2022-11-11T04:32:26;15.10;;;9.50;;
15635;SDS011;7917;50.818;6.972;2022-11-11T04:35:09;15.80;;;8.82;;
15635;SDS011;7917;50.818;6.972;2022-11-11T04:37:43;16.55;;;9.30;;
15635;SDS011;7917;50.818;6.972;2022-11-11T04:40:14;15.27;;;9.50;;
15635;SDS011;7917;50.818;6.972;2022-11-11T04:42:56;15.75;;;8.55;;
15635;SDS011;7917;50.818;6.972;2022-11-11T04:45:23;16.60;;;9.20;;
15635;SDS011;7917;50.818;6.972;2022-11-11T04:47:53;19.65;;;9.07;;
15635;SDS011;7917;50.818;6.972;2022-11-11T04:50:23;17.77;;;8.32;;
15635;SDS011;7917;50.818;6.972;2022-11-11T04:52:52;14.48;;;8.98;;
15635;SDS011;7917;50.818;6.972;2022-11-11T04:55:19;17.85;;;8.95;;
15635;SDS011;7917;50.818;6.972;2022-11-11T04:58:05;16.05;;;9.10;;
15635;SDS011;7917;50.818;6.972;2022-11-11T05:00:32;19.23;;;10.35;;
15635;SDS011;7917;50.818;6.972;2022-11-11T05:02:59;16.50;;;9.82;;
15635;SDS011;7917;50.818;6.972;2022-11-11T05:05:42;18.38;;;9.43;;
15635;SDS011;7917;50.818;6.972;2022-11-11T05:08:28;14.35;;;8.43;;
15635;SDS011;7917;50.818;6.972;2022-11-11T05:11:13;15.48;;;8.73;;
15635;SDS011;7917;50.818;6.972;2022-11-11T05:13:40;17.95;;;9.88;;
15635;SDS011;7917;50.818;6.972;2022-11-11T05:16:32;15.63;;;9.60;;
15635;SDS011;7917;50.818;6.972;2022-11-11T05:19:20;15.63;;;9.20;;
15635;SDS011;7917;50.818;6.972;2022-11-11T05:22:08;17.23;;;9.32;;
15635;SDS011;7917;50.818;6.972;2022-11-11T05:24:40;22.95;;;9.32;;
15635;SDS011;7917;50.818;6.972;2022-11-11T05:27:24;20.35;;;9.23;;
15635;SDS011;7917;50.818;6.972;2022-11-11T05:29:52;27.90;;;9.63;;
15635;SDS011;7917;50.818;6.972;2022-11-11T05:32:20;17.33;;;10.02;;
15635;SDS011;7917;50.818;6.972;2022-11-11T05:34:48;15.32;;;9.32;;
15635;SDS011;7917;50.818;6.972;2022-11-11T05:37:17;19.50;;;9.38;;
15635;SDS011;7917;50.818;6.972;2022-11-11T05:39:45;17.73;;;8.20;;
15635;SDS011;7917;50.818;6.972;2022-11-11T05:42:13;15.30;;;8.73;;
15635;SDS011;7917;50.818;6.972;2022-11-11T05:44:40;17.55;;;8.65;;
15635;SDS011;7917;50.818;6.972;2022-11-11T05:47:08;16.88;;;8.90;;
15635;SDS011;7917;50.818;6.972;2022-11-11T05:49:35;23.30;;;10.27;;
15635;SDS011;7917;50.818;6.972;2022-11-11T05:52:03;18.70;;;10.10;;
15635;SDS011;7917;50.818;6.972;2022-11-11T05:54:33;15.73;;;8.82;;
15635;SDS011;7917;50.818;6.972;2022-11-11T05:57:00;18.48;;;9.45;;
15635;SDS011;7917;50.818;6.972;2022-11-11T05:59:28;16.17;;;9.57;;
15635;SDS011;7917;50.818;6.972;2022-11-11T06:01:55;22.13;;;10.27;;
15635;SDS011;7917;50.818;6.972;2022-11-11T06:04:22;16.58;;;10.18;;
15635;SDS011;7917;50.818;6.972;2022-11-11T06:06:50;23.58;;;10.07;;
15635;SDS011;7917;50.818;6.972;2022-11-11T06:09:17;22.75;;;10.30;;
15635;SDS011;7917;50.818;6.972;2022-11-11T06:11:46;21.98;;;8.73;;
15635;SDS011;7917;50.818;6.972;2022-11-11T06:14:13;19.00;;;9.32;;
15635;SDS011;7917;50.818;6.972;2022-11-11T06:16:40;18.95;;;9.73;;
15635;SDS011;7917;50.818;6.972;2022-11-11T06:19:08;16.55;;;9.77;;
15635;SDS011;7917;50.818;6.972;2022-11-11T06:21:35;15.55;;;9.50;;
15635;SDS011;7917;50.818;6.972;2022-11-11T06:24:16;17.98;;;8.60;;
15635;SDS011;7917;50.818;6.972;2022-11-11T06:26:43;18.67;;;9.38;;
15635;SDS011;7917;50.818;6.972;2022-11-11T06:29:11;18.73;;;8.75;;
15635;SDS011;7917;50.818;6.972;2022-11-11T06:31:38;18.10;;;8.80;;
15635;SDS011;7917;50.818;6.972;2022-11-11T06:34:05;19.20;;;8.88;;
15635;SDS011;7917;50.818;6.972;2022-11-11T06:36:32;17.85;;;9.45;;
15635;SDS011;7917;50.818;6.972;2022-11-11T06:39:00;14.10;;;9.77;;
15635;SDS011;7917;50.818;6.972;2022-11-11T06:41:27;21.08;;;10.38;;
15635;SDS011;7917;50.818;6.972;2022-11-11T06:43:54;20.52;;;9.98;;
15635;SDS011;7917;50.818;6.972;2022-11-11T06:46:23;15.88;;;9.77;;
15635;SDS011;7917;50.818;6.972;2022-11-11T06:48:51;16.90;;;8.70;;
15635;SDS011;7917;50.818;6.972;2022-11-11T06:51:19;17.05;;;8.98;;
15635;SDS011;7917;50.818;6.972;2022-11-11T06:53:46;22.13;;;9.80;;
15635;SDS011;7917;50.818;6.972;2022-11-11T06:56:13;21.05;;;11.05;;
15635;SDS011;7917;50.818;6.972;2022-11-11T06:58:41;22.60;;;10.85;;
15635;SDS011;7917;50.818;6.972;2022-11-11T07:01:09;27.30;;;11.32;;
15635;SDS011;7917;50.818;6.972;2022-11-11T07:03:39;21.98;;;10.00;;
15635;SDS011;7917;50.818;6.972;2022-11-11T07:06:06;23.33;;;11.38;;
15635;SDS011;7917;50.818;6.972;2022-11-11T07:08:34;24.08;;;11.52;;
15635;SDS011;7917;50.818;6.972;2022-11-11T07:11:01;21.42;;;11.20;;
15635;SDS011;7917;50.818;6.972;2022-11-11T07:13:28;24.33;;;11.15;;
15635;SDS011;7917;50.818;6.972;2022-11-11T07:15:55;21.27;;;11.13;;
15635;SDS011;7917;50.818;6.972;2022-11-11T07:18:23;19.45;;;11.10;;
15635;SDS011;7917;50.818;6.972;2022-11-11T07:20:51;21.65;;;11.20;;
15635;SDS011;7917;50.818;6.972;2022-11-11T07:23:18;20.02;;;10.63;;
15635;SDS011;7917;50.818;6.972;2022-11-11T07:25:46;18.73;;;10.45;;
15635;SDS011;7917;50.818;6.972;2022-11-11T07:28:13;25.10;;;10.65;;
15635;SDS011;7917;50.818;6.972;2022-11-11T07:30:41;22.05;;;10.35;;
15635;SDS011;7917;50.818;6.972;2022-11-11T07:33:08;23.70;;;12.05;;
15635;SDS011;7917;50.818;6.972;2022-11-11T07:35:35;24.80;;;10.80;;
15635;SDS011;7917;50.818;6.972;2022-11-11T07:38:04;20.67;;;10.55;;
15635;SDS011;7917;50.818;6.972;2022-11-11T07:40:32;28.25;;;12.18;;
15635;SDS011;7917;50.818;6.972;2022-11-11T07:42:59;23.05;;;11.40;;
15635;SDS011;7917;50.818;6.972;2022-11-11T07:45:26;22.70;;;12.73;;
15635;SDS011;7917;50.818;6.972;2022-11-11T07:47:57;21.20;;;11.45;;
15635;SDS011;7917;50.818;6.972;2022-11-11T07:50:26;20.75;;;10.57;;
15635;SDS011;7917;50.818;6.972;2022-11-11T07:53:06;21.60;;;11.05;;
15635;SDS011;7917;50.818;6.972;2022-11-11T07:55:36;21.20;;;10.43;;
15635;SDS011;7917;50.818;6.972;2022-11-11T07:58:03;18.75;;;10.35;;
15635;SDS011;7917;50.818;6.972;2022-11-11T08:00:32;18.77;;;10.43;;
15635;SDS011;7917;50.818;6.972;2022-11-11T08:02:59;23.05;;;10.48;;
15635;SDS011;7917;50.818;6.972;2022-11-11T08:05:26;23.45;;;11.48;;
15635;SDS011;7917;50.818;6.972;2022-11-11T08:07:54;23.70;;;10.75;;
15635;SDS011;7917;50.818;6.972;2022-11-11T08:10:23;19.33;;;11.43;;
15635;SDS011;7917;50.818;6.972;2022-11-11T08:12:52;21.63;;;10.27;;
15635;SDS011;7917;50.818;6.972;2022-11-11T08:15:33;20.55;;;10.73;;
15635;SDS011;7917;50.818;6.972;2022-11-11T08:18:01;23.17;;;10.27;;
15635;SDS011;7917;50.818;6.972;2022-11-11T08:20:32;21.25;;;11.35;;
15635;SDS011;7917;50.818;6.972;2022-11-11T08:22:59;21.08;;;10.35;;
15635;SDS011;7917;50.818;6.972;2022-11-11T08:25:30;17.83;;;10.00;;
15635;SDS011;7917;50.818;6.972;2022-11-11T08:27:57;17.00;;;9.48;;
15635;SDS011;7917;50.818;6.972;2022-11-11T08:30:25;15.40;;;9.85;;
15635;SDS011;7917;50.818;6.972;2022-11-11T08:32:56;18.27;;;9.60;;
15635;SDS011;7917;50.818;6.972;2022-11-11T08:35:24;19.50;;;9.68;;
15635;SDS011;7917;50.818;6.972;2022-11-11T08:37:51;14.57;;;8.60;;
15635;SDS011;7917;50.818;6.972;2022-11-11T08:40:19;15.68;;;8.75;;
15635;SDS011;7917;50.818;6.972;2022-11-11T08:42:48;17.25;;;8.70;;
15635;SDS011;7917;50.818;6.972;2022-11-11T08:45:16;15.35;;;8.85;;
15635;SDS011;7917;50.818;6.972;2022-11-11T08:47:43;17.20;;;8.57;;
15635;SDS011;7917;50.818;6.972;2022-11-11T08:50:11;13.18;;;8.55;;
15635;SDS011;7917;50.818;6.972;2022-11-11T08:52:38;12.55;;;8.00;;
15635;SDS011;7917;50.818;6.972;2022-11-11T08:55:11;15.07;;;8.50;;
15635;SDS011;7917;50.818;6.972;2022-11-11T08:57:39;12.73;;;8.15;;
15635;SDS011;7917;50.818;6.972;2022-11-11T09:00:09;12.73;;;7.20;;
15635;SDS011;7917;50.818;6.972;2022-11-11T09:02:37;18.70;;;8.75;;
15635;SDS011;7917;50.818;6.972;2022-11-11T09:05:05;16.75;;;8.32;;
15635;SDS011;7917;50.818;6.972;2022-11-11T09:07:33;14.98;;;8.00;;
15635;SDS011;7917;50.818;6.972;2022-11-11T09:10:00;13.88;;;8.23;;
15635;SDS011;7917;50.818;6.972;2022-11-11T09:12:27;15.75;;;8.10;;
15635;SDS011;7917;50.818;6.972;2022-11-11T09:14:55;15.20;;;9.55;;
15635;SDS011;7917;50.818;6.972;2022-11-11T09:17:24;11.45;;;7.45;;
15635;SDS011;7917;50.818;6.972;2022-11-11T09:19:52;14.80;;;7.60;;
15635;SDS011;7917;50.818;6.972;2022-11-11T09:22:19;14.43;;;8.20;;
15635;SDS011;7917;50.818;6.972;2022-11-11T09:24:47;15.27;;;7.85;;
15635;SDS011;7917;50.818;6.972;2022-11-11T09:27:14;13.43;;;7.32;;
15635;SDS011;7917;50.818;6.972;2022-11-11T09:29:41;14.30;;;7.60;;
15635;SDS011;7917;50.818;6.972;2022-11-11T09:32:09;14.02;;;7.97;;
15635;SDS011;7917;50.818;6.972;2022-11-11T09:34:38;11.73;;;7.43;;
15635;SDS011;7917;50.818;6.972;2022-11-11T09:37:05;13.60;;;7.30;;
15635;SDS011;7917;50.818;6.972;2022-11-11T09:39:35;13.73;;;7.90;;
15635;SDS011;7917;50.818;6.972;2022-11-11T09:42:07;14.45;;;6.72;;
15635;SDS011;7917;50.818;6.972;2022-11-11T09:44:47;14.60;;;7.15;;
15635;SDS011;7917;50.818;6.972;2022-11-11T09:47:29;10.55;;;7.75;;
15635;SDS011;7917;50.818;6.972;2022-11-11T09:50:03;11.45;;;6.78;;
15635;SDS011;7917;50.818;6.972;2022-11-11T09:52:36;13.07;;;7.82;;
15635;SDS011;7917;50.818;6.972;2022-11-11T09:55:11;14.45;;;6.93;;
15635;SDS011;7917;50.818;6.972;2022-11-11T09:57:46;11.07;;;6.72;;
15635;SDS011;7917;50.818;6.972;2022-11-11T10:00:18;12.93;;;6.60;;
15635;SDS011;7917;50.818;6.972;2022-11-11T10:02:49;9.93;;;6.55;;
15635;SDS011;7917;50.818;6.972;2022-11-11T10:05:21;14.38;;;7.22;;
15635;SDS011;7917;50.818;6.972;2022-11-11T10:07:53;10.07;;;6.10;;
15635;SDS011;7917;50.818;6.972;2022-11-11T10:10:26;11.90;;;6.47;;
15635;SDS011;7917;50.818;6.972;2022-11-11T10:13:00;11.45;;;6.20;;
15635;SDS011;7917;50.818;6.972;2022-11-11T10:15:31;8.63;;;5.68;;
15635;SDS011;7917;50.818;6.972;2022-11-11T10:20:56;8.77;;;5.57;;
15635;SDS011;7917;50.818;6.972;2022-11-11T10:23:24;10.85;;;6.20;;
15635;SDS011;7917;50.818;6.972;2022-11-11T10:25:55;9.27;;;5.43;;
15635;SDS011;7917;50.818;6.972;2022-11-11T10:28:27;8.82;;;5.03;;
15635;SDS011;7917;50.818;6.972;2022-11-11T10:30:59;8.05;;;5.22;;
15635;SDS011;7917;50.818;6.972;2022-11-11T10:33:31;13.63;;;6.00;;
15635;SDS011;7917;50.818;6.972;2022-11-11T10:36:12;10.15;;;5.60;;
15635;SDS011;7917;50.818;6.972;2022-11-11T10:38:45;7.93;;;5.25;;
15635;SDS011;7917;50.818;6.972;2022-11-11T10:41:18;9.85;;;5.35;;
15635;SDS011;7917;50.818;6.972;2022-11-11T10:43:51;8.50;;;4.68;;
15635;SDS011;7917;50.818;6.972;2022-11-11T10:46:19;9.05;;;4.97;;
15635;SDS011;7917;50.818;6.972;2022-11-11T10:48:51;8.88;;;4.55;;
15635;SDS011;7917;50.818;6.972;2022-11-11T10:51:23;7.28;;;4.13;;
15635;SDS011;7917;50.818;6.972;2022-11-11T10:53:58;5.93;;;4.00;;
15635;SDS011;7917;50.818;6.972;2022-11-11T10:56:31;8.98;;;5.10;;
15635;SDS011;7917;50.818;6.972;2022-11-11T10:59:05;6.35;;;4.35;;
15635;SDS011;7917;50.818;6.972;2022-11-11T11:01:40;9.50;;;5.00;;
15635;SDS011;7917;50.818;6.972;2022-11-11T11:04:14;7.22;;;4.50;;
15635;SDS011;7917;50.818;6.972;2022-11-11T11:06:47;10.35;;;4.47;;
15635;SDS011;7917;50.818;6.972;2022-11-11T11:09:19;8.57;;;4.78;;
15635;SDS011;7917;50.818;6.972;2022-11-11T11:11:51;4.55;;;3.40;;
15635;SDS011;7917;50.818;6.972;2022-11-11T11:14:23;6.75;;;4.07;;
15635;SDS011;7917;50.818;6.972;2022-11-11T11:16:57;6.57;;;3.40;;
15635;SDS011;7917;50.818;6.972;2022-11-11T11:19:33;6.82;;;3.90;;
15635;SDS011;7917;50.818;6.972;2022-11-11T11:22:02;8.48;;;3.83;;
15635;SDS011;7917;50.818;6.972;2022-11-11T11:24:31;7.63;;;3.97;;
15635;SDS011;7917;50.818;6.972;2022-11-11T11:27:01;8.63;;;4.00;;
15635;SDS011;7917;50.818;6.972;2022-11-11T11:29:31;8.02;;;4.00;;
15635;SDS011;7917;50.818;6.972;2022-11-11T11:32:19;6.28;;;3.25;;
15635;SDS011;7917;50.818;6.972;2022-11-11T11:34:48;7.22;;;3.45;;
15635;SDS011;7917;50.818;6.972;2022-11-11T11:37:19;4.82;;;3.25;;
15635;SDS011;7917;50.818;6.972;2022-11-11T11:39:48;6.68;;;3.40;;
15635;SDS011;7917;50.818;6.972;2022-11-11T11:42:26;5.68;;;3.28;;
15635;SDS011;7917;50.818;6.972;2022-11-11T11:44:54;6.88;;;3.20;;
15635;SDS011;7917;50.818;6.972;2022-11-11T11:47:33;7.97;;;3.70;;
15635;SDS011;7917;50.818;6.972;2022-11-11T11:53:01;25.52;;;3.83;;
15635;SDS011;7917;50.818;6.972;2022-11-11T11:55:42;11.85;;;3.17;;
15635;SDS011;7917;50.818;6.972;2022-11-11T12:01:03;5.93;;;2.90;;
15635;SDS011;7917;50.818;6.972;2022-11-11T12:03:40;4.28;;;2.80;;
15635;SDS011;7917;50.818;6.972;2022-11-11T12:06:34;3.90;;;2.83;;
15635;SDS011;7917;50.818;6.972;2022-11-11T12:09:15;4.90;;;2.42;;
15635;SDS011;7917;50.818;6.972;2022-11-11T12:11:54;4.95;;;3.15;;
15635;SDS011;7917;50.818;6.972;2022-11-11T12:14:38;5.85;;;2.45;;
15635;SDS011;7917;50.818;6.972;2022-11-11T12:17:18;5.32;;;2.20;;
15635;SDS011;7917;50.818;6.972;2022-11-11T12:19:56;4.63;;;2.38;;
15635;SDS011;7917;50.818;6.972;2022-11-11T12:22:35;3.38;;;2.20;;
15635;SDS011;7917;50.818;6.972;2022-11-11T12:25:17;5.93;;;2.55;;
15635;SDS011;7917;50.818;6.972;2022-11-11T12:27:55;2.55;;;1.88;;
15635;SDS011;7917;50.818;6.972;2022-11-11T12:30:34;7.38;;;2.22;;
15635;SDS011;7917;50.818;6.972;2022-11-11T12:33:13;3.67;;;2.28;;
15635;SDS011;7917;50.818;6.972;2022-11-11T12:35:56;3.35;;;2.40;;
15635;SDS011;7917;50.818;6.972;2022-11-11T12:38:39;3.78;;;2.00;;
15635;SDS011;7917;50.818;6.972;2022-11-11T12:41:19;5.22;;;2.70;;
15635;SDS011;7917;50.818;6.972;2022-11-11T12:43:55;4.18;;;1.88;;
15635;SDS011;7917;50.818;6.972;2022-11-11T12:46:32;8.98;;;2.25;;
15635;SDS011;7917;50.818;6.972;2022-11-11T12:49:19;3.70;;;1.85;;
15635;SDS011;7917;50.818;6.972;2022-11-11T12:52:04;5.43;;;2.13;;
15635;SDS011;7917;50.818;6.972;2022-11-11T12:54:45;3.63;;;1.83;;
15635;SDS011;7917;50.818;6.972;2022-11-11T12:57:23;4.28;;;1.80;;
15635;SDS011;7917;50.818;6.972;2022-11-11T13:00:03;2.22;;;1.70;;
15635;SDS011;7917;50.818;6.972;2022-11-11T13:02:53;3.45;;;2.30;;
15635;SDS011;7917;50.818;6.972;2022-11-11T13:05:46;5.05;;;1.52;;
15635;SDS011;7917;50.818;6.972;2022-11-11T13:08:39;5.68;;;1.92;;
15635;SDS011;7917;50.818;6.972;2022-11-11T13:11:23;5.28;;;1.95;;
15635;SDS011;7917;50.818;6.972;2022-11-11T13:14:03;3.67;;;1.75;;
15635;SDS011;7917;50.818;6.972;2022-11-11T13:16:49;3.85;;;1.50;;
15635;SDS011;7917;50.818;6.972;2022-11-11T13:19:36;3.50;;;1.50;;
15635;SDS011;7917;50.818;6.972;2022-11-11T13:22:10;4.78;;;2.08;;
15635;SDS011;7917;50.818;6.972;2022-11-11T13:24:45;4.30;;;1.73;;
15635;SDS011;7917;50.818;6.972;2022-11-11T13:27:13;3.65;;;1.88;;
15635;SDS011;7917;50.818;6.972;2022-11-11T13:29:58;6.25;;;2.00;;
15635;SDS011;7917;50.818;6.972;2022-11-11T13:32:49;5.75;;;2.33;;
15635;SDS011;7917;50.818;6.972;2022-11-11T13:35:21;4.68;;;1.92;;
15635;SDS011;7917;50.818;6.972;2022-11-11T13:38:00;3.70;;;1.98;;
15635;SDS011;7917;50.818;6.972;2022-11-11T13:40:33;4.55;;;1.58;;
15635;SDS011;7917;50.818;6.972;2022-11-11T13:43:05;3.58;;;2.00;;
15635;SDS011;7917;50.818;6.972;2022-11-11T13:45:48;2.92;;;1.67;;
15635;SDS011;7917;50.818;6.972;2022-11-11T13:48:18;6.53;;;2.05;;
15635;SDS011;7917;50.818;6.972;2022-11-11T13:50:51;3.65;;;2.22;;
15635;SDS011;7917;50.818;6.972;2022-11-11T13:53:26;5.07;;;2.75;;
15635;SDS011;7917;50.818;6.972;2022-11-11T13:55:59;3.67;;;2.30;;
15635;SDS011;7917;50.818;6.972;2022-11-11T13:58:31;4.60;;;2.38;;
15635;SDS011;7917;50.818;6.972;2022-11-11T14:01:02;4.10;;;2.10;;
15635;SDS011;7917;50.818;6.972;2022-11-11T14:03:32;5.13;;;2.10;;
15635;SDS011;7917;50.818;6.972;2022-11-11T14:12:21;3.65;;;2.15;;
15635;SDS011;7917;50.818;6.972;2022-11-11T14:15:01;4.50;;;2.60;;
15635;SDS011;7917;50.818;6.972;2022-11-11T14:17:33;6.85;;;2.30;;
15635;SDS011;7917;50.818;6.972;2022-11-11T14:23:21;6.03;;;2.42;;
15635;SDS011;7917;50.818;6.972;2022-11-11T14:28:51;4.53;;;2.30;;
15635;SDS011;7917;50.818;6.972;2022-11-11T14:31:31;2.75;;;2.00;;
15635;SDS011;7917;50.818;6.972;2022-11-11T14:34:19;3.97;;;2.40;;
15635;SDS011;7917;50.818;6.972;2022-11-11T14:36:56;4.28;;;2.17;;
15635;SDS011;7917;50.818;6.972;2022-11-11T14:39:32;5.35;;;2.20;;
15635;SDS011;7917;50.818;6.972;2022-11-11T14:42:03;6.65;;;3.03;;
15635;SDS011;7917;50.818;6.972;2022-11-11T14:44:40;5.57;;;2.33;;
15635;SDS011;7917;50.818;6.972;2022-11-11T14:47:17;8.05;;;2.50;;
15635;SDS011;7917;50.818;6.972;2022-11-11T14:49:58;4.95;;;2.25;;
15635;SDS011;7917;50.818;6.972;2022-11-11T14:52:28;4.22;;;2.70;;
15635;SDS011;7917;50.818;6.972;2022-11-11T14:57:45;5.43;;;2.88;;
15635;SDS011;7917;50.818;6.972;2022-11-11T15:00:15;10.23;;;2.72;;
15635;SDS011;7917;50.818;6.972;2022-11-11T15:02:47;3.85;;;2.35;;
15635;SDS011;7917;50.818;6.972;2022-11-11T15:05:19;4.47;;;2.33;;
15635;SDS011;7917;50.818;6.972;2022-11-11T15:10:55;4.05;;;2.35;;
15635;SDS011;7917;50.818;6.972;2022-11-11T15:13:54;4.53;;;2.30;;
15635;SDS011;7917;50.818;6.972;2022-11-11T15:16:45;5.28;;;2.63;;
15635;SDS011;7917;50.818;6.972;2022-11-11T15:19:27;4.10;;;2.38;;
15635;SDS011;7917;50.818;6.972;2022-11-11T15:22:16;3.72;;;2.50;;
15635;SDS011;7917;50.818;6.972;2022-11-11T15:25:05;6.50;;;3.33;;
15635;SDS011;7917;50.818;6.972;2022-11-11T15:27:44;6.57;;;2.58;;
15635;SDS011;7917;50.818;6.972;2022-11-11T15:30:17;5.82;;;2.58;;
15635;SDS011;7917;50.818;6.972;2022-11-11T15:32:59;5.68;;;2.92;;
15635;SDS011;7917;50.818;6.972;2022-11-11T15:35:33;6.90;;;2.53;;
15635;SDS011;7917;50.818;6.972;2022-11-11T15:38:10;7.60;;;2.70;;
15635;SDS011;7917;50.818;6.972;2022-11-11T15:40:43;4.47;;;3.10;;
15635;SDS011;7917;50.818;6.972;2022-11-11T15:43:16;8.15;;;4.50;;
15635;SDS011;7917;50.818;6.972;2022-11-11T15:45:48;7.47;;;3.13;;
15635;SDS011;7917;50.818;6.972;2022-11-11T15:48:18;9.57;;;3.30;;
15635;SDS011;7917;50.818;6.972;2022-11-11T15:50:47;8.50;;;3.58;;
15635;SDS011;7917;50.818;6.972;2022-11-11T15:53:21;5.47;;;3.60;;
15635;SDS011;7917;50.818;6.972;2022-11-11T15:55:52;5.55;;;3.38;;